METAR Data
IDs: Format: Raw Decoded Include TAF

Data at: 1430 UTC 11 Dec 2018

KADS 111347Z 15007KT 10SM SKC 04/M01 A3033
KADS 111248Z 15004KT 10SM SKC 03/M01 A3035
KADS 111147Z 14003KT 10SM SKC 03/M01 A3033
KADS 111035Z AUTO 00000KT 10SM CLR 03/M01 A3034 RMK AO2 T00261009
KADS 111015Z AUTO 00000KT 10SM CLR 04/M01 A3034 RMK AO2 T00371007
KADS 110955Z AUTO 00000KT 10SM CLR 04/00 A3035 RMK AO2 T00411005
KADS 110935Z AUTO 15003KT 10SM CLR 02/M01 A3036 RMK AO2 T00231013
KADS 110915Z AUTO 00000KT 10SM CLR 05/M01 A3036 RMK AO2 T00511006
KADS 110855Z AUTO 00000KT 10SM CLR 06/M01 A3037 RMK AO2 T00551006
KADS 110835Z AUTO 00000KT 10SM CLR 06/M01 A3037 RMK AO2 T00561006
KADS 110815Z AUTO 19003KT 10SM CLR 07/M01 A3037 RMK AO2 T00651006
KADS 110755Z AUTO 00000KT 10SM CLR 05/M01 A3037 RMK AO2 T00531007
KADS 110735Z AUTO 16004KT 10SM CLR 04/M01 A3036 RMK AO2 T00361010
KADS 110715Z AUTO 16005KT 10SM CLR 04/M01 A3036 RMK AO2 T00371010
KADS 110655Z AUTO 16005KT 10SM CLR 03/M01 A3037 RMK AO2 T00331011
KADS 110635Z AUTO 16003KT 10SM CLR 04/M01 A3037 RMK AO2 T00381010
KADS 110615Z AUTO 00000KT 10SM CLR 04/M01 A3037 RMK AO2 T00441010
KADS 110555Z AUTO 17003KT 10SM CLR 06/M01 A3037 RMK AO2 T00581010 10098 20045 401321001
KADS 110535Z AUTO 18004KT 10SM CLR 06/M01 A3037 RMK AO2 T00561010
KADS 110515Z AUTO 17003KT 10SM CLR 05/M01 A3037 RMK AO2 T00481006
KADS 110455Z AUTO 16006KT 10SM CLR 05/M01 A3037 RMK AO2 T00471007
KADS 110435Z AUTO 16005KT 10SM CLR 05/00 A3037 RMK AO2 T00531005
KADS 110415Z AUTO 16005KT 10SM CLR 06/M01 A3037 RMK AO2 T00561006
KADS 110355Z AUTO 16005KT 10SM CLR 07/M01 A3037 RMK AO2 T00661009
KADS 110335Z AUTO 16005KT 10SM CLR 07/M01 A3037 RMK AO2 T00681006
KADS 110315Z AUTO 16005KT 10SM CLR 06/M01 A3036 RMK AO2 T00591011
KADS 110252Z 16007KT 10SM SKC 07/M02 A3035
KADS 110150Z 16004KT 10SM SKC 08/M03 A3035
KADS 110047Z 16004KT 10SM SKC 10/M03 A3034
KADS 102347Z 16004KT 10SM SKC 10/M04 A3033
KADS 102247Z 18004KT 10SM SKC 13/M06 A3033
KADS 102150Z 23003KT 10SM SKC 13/M06 A3033
KADS 102058Z 00000KT 10SM SKC 13/M06 A3033
KADS 101947Z 27005KT 10SM SKC 13/M05 A3034
KADS 101847Z 27003KT 10SM SKC 11/M03 A3039
KADS 101747Z 26003KT 10SM SKC 10/M03 A3041
KADS 101655Z 25004KT 10SM SKC 09/M01 A3041
KADS 101607Z 00000KT 10SM SKC 06/00 A3042
KADS 101552Z 00000KT 10SM SKC 05/00 A3042
KADS 101447Z 00000KT 10SM SKC 03/00 A3040
KADS 101347Z 00000KT 10SM SKC 01/M02 A3039
KADS 101252Z 00000KT 10SM SKC 00/M02 A3037
KADS 101152Z 24003KT 10SM SKC 01/M02 A3035
KADS 101035Z AUTO 00000KT 10SM CLR 01/M01 A3036 RMK AO2 T00071015
KADS 101015Z AUTO 00000KT 10SM CLR 01/M01 A3036 RMK AO2 T00071014
KADS 100955Z AUTO 00000KT 10SM CLR 01/M01 A3036 RMK AO2 T00101012
KADS 100935Z AUTO 00000KT 10SM CLR 01/M01 A3036 RMK AO2 T00101008
KADS 100915Z AUTO 00000KT 10SM CLR 01/M01 A3036 RMK AO2 T00121006
KADS 100855Z AUTO 00000KT 10SM CLR 01/00 A3036 RMK AO2 T00101005
KADS 100835Z AUTO 00000KT 10SM CLR 01/00 A3037 RMK AO2 T00131003
KADS 100815Z AUTO 00000KT 10SM CLR 02/00 A3037 RMK AO2 T00151003
KADS 100750Z AUTO 00000KT 10SM CLR 02/M01 A3036 RMK AO2 T00151007
KADS 100735Z AUTO 00000KT 10SM CLR 02/00 A3036 RMK AO2 T00171005
KADS 100715Z AUTO 00000KT 10SM CLR 02/M01 A3037 RMK AO2 T00181007
KADS 100655Z AUTO 00000KT 10SM CLR 03/M01 A3037 RMK AO2 T00261008
KADS 100635Z AUTO 00000KT 10SM CLR 02/M01 A3038 RMK AO2 T00241008
KADS 100615Z AUTO 33003KT 10SM CLR 03/00 A3038 RMK AO2 T00331005
KADS 100555Z AUTO 34003KT 10SM CLR 03/M01 A3038 RMK AO2 T00271007 10078 20027 401000025
KADS 100535Z AUTO 00000KT 10SM CLR 03/00 A3038 RMK AO2 T00341005
KADS 100515Z AUTO 33004KT 10SM CLR 04/M01 A3039 RMK AO2 T00391006
KADS 100455Z AUTO 33005KT 10SM CLR 04/00 A3039 RMK AO2 T00421003
KADS 100435Z AUTO 33005KT 10SM CLR 04/00 A3039 RMK AO2 T00391003
KADS 100415Z AUTO 32005KT 10SM CLR 04/00 A3039 RMK AO2 T00441002
KADS 100355Z AUTO 32004KT 10SM CLR 04/00 A3038 RMK AO2 T00431005
KADS 100347Z 31004KT 10SM SKC 05/M01 A3037
KADS 100335Z AUTO 31003KT 10SM CLR 05/M01 A3038 RMK AO2 T00451009
KADS 100315Z AUTO 33003KT 10SM CLR 05/M01 A3037 RMK AO2 T00481011
KADS 100247Z 00000KT 10SM SKC 06/M02 A3037